createdAt,value
2023-05-22T00:00:56.124Z,6.28
2023-05-22T00:05:49.666Z,7.63
2023-05-22T00:10:43.577Z,5.50
2023-05-22T00:15:36.897Z,5.75
2023-05-22T00:20:31.573Z,6.80
2023-05-22T00:25:24.984Z,5.22
2023-05-22T00:30:18.444Z,7.13
2023-05-22T00:35:12.080Z,5.53
2023-05-22T00:40:09.642Z,5.70
2023-05-22T00:45:02.961Z,5.30
2023-05-22T00:49:56.967Z,5.80
2023-05-22T00:54:54.811Z,10.68
2023-05-22T00:59:50.715Z,7.65
2023-05-22T01:04:48.514Z,7.95
2023-05-22T01:09:41.866Z,7.50
2023-05-22T01:14:48.387Z,6.40
2023-05-22T01:20:14.342Z,7.25
2023-05-22T01:25:37.315Z,11.43
2023-05-22T01:31:00.667Z,10.98
2023-05-22T01:35:58.523Z,7.93
2023-05-22T01:40:52.214Z,8.07
2023-05-22T01:45:46.103Z,8.40
2023-05-22T01:50:41.932Z,8.30
2023-05-22T01:55:46.352Z,9.10
2023-05-22T02:00:45.988Z,10.82
2023-05-22T02:05:42.025Z,8.02
2023-05-22T02:10:37.700Z,7.78
2023-05-22T02:15:32.152Z,7.57
2023-05-22T02:20:25.539Z,8.40
2023-05-22T02:25:20.330Z,8.18
2023-05-22T02:30:15.499Z,8.32
2023-05-22T02:35:10.247Z,8.82
2023-05-22T02:40:06.171Z,9.48
2023-05-22T02:45:01.006Z,8.27
2023-05-22T02:49:54.366Z,7.88
2023-05-22T02:54:47.683Z,8.95
2023-05-22T02:59:41.000Z,8.80
2023-05-22T03:04:38.648Z,8.98
2023-05-22T03:09:32.031Z,8.40
2023-05-22T03:14:25.431Z,12.02
2023-05-22T03:19:18.763Z,8.85
2023-05-22T03:24:13.725Z,9.73
2023-05-22T03:29:07.115Z,9.93
2023-05-22T03:34:00.897Z,9.25
2023-05-22T03:38:54.564Z,8.95
2023-05-22T03:43:49.312Z,9.60
2023-05-22T03:48:42.684Z,9.82
2023-05-22T03:53:36.014Z,9.18
2023-05-22T03:58:29.333Z,8.48
2023-05-22T04:03:24.149Z,10.20
2023-05-22T04:08:17.516Z,10.10
2023-05-22T04:13:10.900Z,10.38
2023-05-22T04:18:04.275Z,10.48
2023-05-22T04:22:59.136Z,9.00
2023-05-22T04:27:52.501Z,10.82
2023-05-22T04:32:45.892Z,10.38
2023-05-22T04:37:40.835Z,10.63
2023-05-22T04:42:37.375Z,9.25
2023-05-22T04:47:31.831Z,28.33
2023-05-22T04:52:25.576Z,9.57
2023-05-22T04:57:18.941Z,9.55
2023-05-22T05:02:13.760Z,12.40
2023-05-22T05:07:07.229Z,12.00
2023-05-22T05:12:00.603Z,10.13
2023-05-22T05:16:54.804Z,11.63
2023-05-22T05:21:50.471Z,11.15
2023-05-22T05:26:44.104Z,11.82
2023-05-22T05:31:37.494Z,12.13
2023-05-22T05:36:31.616Z,13.10
2023-05-22T05:41:27.233Z,14.93
2023-05-22T05:46:20.928Z,10.60
2023-05-22T05:51:14.452Z,10.32
2023-05-22T05:56:09.392Z,10.68
2023-05-22T06:01:04.926Z,9.82
2023-05-22T06:05:59.375Z,10.25
2023-05-22T06:10:52.946Z,9.35
2023-05-22T06:15:46.294Z,9.88
2023-05-22T06:20:41.320Z,9.57
2023-05-22T06:25:34.961Z,9.60
2023-05-22T06:30:39.612Z,10.05
2023-05-22T06:35:33.655Z,9.30
2023-05-22T06:40:28.442Z,9.05
2023-05-22T06:45:21.868Z,11.55
2023-05-22T06:50:15.249Z,10.35
2023-05-22T06:55:09.929Z,10.27
2023-05-22T07:00:07.685Z,11.90
2023-05-22T07:05:01.078Z,10.90
2023-05-22T07:09:54.526Z,10.40
2023-05-22T07:14:47.953Z,10.43
2023-05-22T07:19:42.655Z,11.48
2023-05-22T07:24:36.241Z,12.95
2023-05-22T07:29:29.615Z,9.57
2023-05-22T07:34:23.424Z,9.63
2023-05-22T07:39:18.137Z,10.18
2023-05-22T07:44:11.521Z,8.35
2023-05-22T07:49:04.854Z,8.35
2023-05-22T07:58:53.789Z,6.40
2023-05-22T08:03:47.297Z,7.30
2023-05-22T08:08:40.710Z,6.28
2023-05-22T08:13:34.092Z,6.32
2023-05-22T08:18:29.570Z,6.50
2023-05-22T08:23:23.330Z,5.97
2023-05-22T08:28:16.697Z,5.97
2023-05-22T08:33:10.036Z,5.68
2023-05-22T08:38:04.974Z,6.35
2023-05-22T08:42:58.541Z,6.10
2023-05-22T08:47:56.585Z,5.88
2023-05-22T08:52:58.396Z,7.22
2023-05-22T08:57:54.022Z,8.18
2023-05-22T09:02:49.102Z,7.85
2023-05-22T09:07:42.521Z,7.68
2023-05-22T09:12:37.934Z,9.63
2023-05-22T09:17:32.634Z,8.68
2023-05-22T09:22:39.019Z,8.25
2023-05-22T09:27:32.407Z,7.95
2023-05-22T09:32:26.133Z,8.68
2023-05-22T09:37:20.867Z,8.35
2023-05-22T09:42:17.786Z,8.02
2023-05-22T09:47:11.645Z,9.73
2023-05-22T09:52:09.784Z,8.98
2023-05-22T09:57:10.473Z,9.15
2023-05-22T10:02:04.214Z,9.25
2023-05-22T10:07:03.709Z,10.52
2023-05-22T10:12:05.178Z,14.32
2023-05-22T10:17:03.130Z,8.52
2023-05-22T10:22:01.509Z,9.48
2023-05-22T10:26:56.398Z,8.98
2023-05-22T10:32:00.165Z,9.20
2023-05-22T10:37:18.322Z,7.80
2023-05-22T10:42:15.527Z,8.00
2023-05-22T10:47:12.668Z,8.30
2023-05-22T10:52:10.165Z,8.20
2023-05-22T10:57:14.617Z,7.25
2023-05-22T11:02:20.777Z,7.35
2023-05-22T11:07:15.616Z,8.60
2023-05-22T11:12:25.833Z,7.35
2023-05-22T11:17:23.123Z,12.77
2023-05-22T11:22:19.363Z,8.45
2023-05-22T11:27:12.827Z,8.05
2023-05-22T11:32:09.172Z,7.85
2023-05-22T11:37:02.740Z,7.90
2023-05-22T11:41:57.480Z,7.40
2023-05-22T11:46:51.162Z,6.40
2023-05-22T11:51:45.108Z,6.82
2023-05-22T11:56:38.440Z,6.47
2023-05-22T12:01:33.990Z,6.13
2023-05-22T12:06:27.503Z,6.75
2023-05-22T12:11:21.676Z,6.70
2023-05-22T12:16:23.004Z,6.50
2023-05-22T12:21:20.542Z,9.32
2023-05-22T12:26:13.871Z,5.80
2023-05-22T12:31:07.231Z,6.90
2023-05-22T12:36:00.891Z,5.93
2023-05-22T12:40:57.271Z,5.78
2023-05-22T12:45:50.666Z,6.03
2023-05-22T12:50:44.252Z,5.00
2023-05-22T12:55:37.873Z,7.13
2023-05-22T13:00:32.702Z,5.18
2023-05-22T13:05:26.490Z,6.35
2023-05-22T13:10:20.434Z,5.13
2023-05-22T13:15:15.378Z,5.40
2023-05-22T13:20:12.152Z,6.30
2023-05-22T13:25:06.828Z,4.90
2023-05-22T13:30:00.203Z,5.13
2023-05-22T13:34:53.591Z,4.72
2023-05-22T13:39:48.588Z,5.30
2023-05-22T13:44:41.943Z,4.57
2023-05-22T13:49:35.329Z,5.43
2023-05-22T13:54:29.164Z,7.00
2023-05-22T13:59:23.926Z,4.90
2023-05-22T14:04:17.369Z,4.47
2023-05-22T14:09:10.775Z,5.32
2023-05-22T14:14:04.200Z,5.30
2023-05-22T14:19:00.983Z,4.93
2023-05-22T14:23:54.382Z,5.30
2023-05-22T14:28:47.670Z,5.55
2023-05-22T14:33:41.005Z,5.55
2023-05-22T14:38:36.295Z,5.60
2023-05-22T14:43:29.726Z,4.82
2023-05-22T14:48:26.294Z,5.07
2023-05-22T14:53:19.860Z,5.47
2023-05-22T14:58:14.741Z,5.30
2023-05-22T15:03:08.164Z,5.10
2023-05-22T15:08:01.654Z,5.75
2023-05-22T15:12:55.241Z,5.70
2023-05-22T15:17:49.973Z,5.60
2023-05-22T15:22:43.312Z,5.90
2023-05-22T15:27:37.355Z,5.60
2023-05-22T15:32:31.616Z,5.80
2023-05-22T15:37:26.417Z,5.47
2023-05-22T15:42:19.829Z,5.72
2023-05-22T15:47:13.202Z,5.75
2023-05-22T15:52:06.995Z,5.07
2023-05-22T15:57:01.868Z,6.97
2023-05-22T16:01:55.217Z,6.15
2023-05-22T16:06:48.635Z,6.45
2023-05-22T16:11:41.979Z,5.97
2023-05-22T16:16:36.997Z,6.30
2023-05-22T16:21:31.002Z,6.00
2023-05-22T16:26:24.421Z,6.63
2023-05-22T16:31:19.800Z,5.95
2023-05-22T16:36:14.645Z,5.93
2023-05-22T16:41:07.980Z,5.80
2023-05-22T16:46:01.304Z,6.15
2023-05-22T16:50:54.652Z,6.78
2023-05-22T16:55:49.443Z,5.65
2023-05-22T17:00:43.037Z,6.47
2023-05-22T17:05:36.632Z,5.85
2023-05-22T17:10:30.082Z,6.57
2023-05-22T17:15:24.864Z,7.30
2023-05-22T17:20:19.002Z,5.63
2023-05-22T17:25:12.428Z,5.38
2023-05-22T17:30:07.850Z,5.32
2023-05-22T17:35:03.324Z,5.53
2023-05-22T17:39:56.685Z,6.00
2023-05-22T17:44:50.000Z,5.82
2023-05-22T17:49:43.310Z,5.78
2023-05-22T17:54:37.989Z,5.90
2023-05-22T17:59:32.155Z,5.22
2023-05-22T18:04:25.495Z,5.43
2023-05-22T18:09:18.884Z,5.80
2023-05-22T18:14:13.629Z,5.35
2023-05-22T18:19:07.103Z,5.40
2023-05-22T18:24:00.496Z,6.45
2023-05-22T18:29:10.360Z,5.53
2023-05-22T18:34:08.990Z,7.38
2023-05-22T18:39:02.336Z,5.00
2023-05-22T18:43:55.672Z,4.70
2023-05-22T18:48:49.907Z,5.00
2023-05-22T18:53:44.576Z,5.15
2023-05-22T18:58:41.273Z,6.18
2023-05-22T19:03:34.667Z,5.95
2023-05-22T19:08:34.696Z,5.38
2023-05-22T19:13:29.838Z,6.18
2023-05-22T19:18:23.350Z,9.00
2023-05-22T19:23:16.757Z,4.90
2023-05-22T19:28:10.076Z,5.55
2023-05-22T19:33:06.536Z,5.43
2023-05-22T19:38:02.126Z,5.28
2023-05-22T19:42:55.501Z,5.78
2023-05-22T19:47:48.896Z,7.07
2023-05-22T19:52:43.636Z,7.63
2023-05-22T19:57:37.284Z,6.93
2023-05-22T20:02:30.647Z,6.25
2023-05-22T20:07:24.023Z,8.15
2023-05-22T20:12:18.724Z,6.85
2023-05-22T20:17:12.033Z,6.10
2023-05-22T20:22:06.152Z,6.38
2023-05-22T20:26:59.435Z,8.15
2023-05-22T20:31:55.845Z,8.50
2023-05-22T20:36:50.894Z,8.35
2023-05-22T20:41:44.232Z,6.28
2023-05-22T20:46:39.166Z,7.43
2023-05-22T20:51:33.901Z,7.85
2023-05-22T20:56:27.656Z,7.05
2023-05-22T21:01:21.150Z,6.68
2023-05-22T21:06:14.620Z,7.32
2023-05-22T21:11:09.303Z,6.75
2023-05-22T21:16:02.656Z,7.45
2023-05-22T21:20:56.125Z,7.03
2023-05-22T21:25:49.584Z,7.60
2023-05-22T21:31:23.633Z,7.85
2023-05-22T21:36:07.775Z,9.95
2023-05-22T21:41:01.211Z,6.90
2023-05-22T21:45:55.891Z,7.20
2023-05-22T21:50:50.303Z,7.47
2023-05-22T21:55:43.599Z,7.03
2023-05-22T22:00:37.257Z,7.68
2023-05-22T22:05:34.444Z,6.93
2023-05-22T22:10:27.824Z,8.38
2023-05-22T22:15:21.782Z,6.88
2023-05-22T22:20:15.081Z,7.78
2023-05-22T22:25:11.108Z,7.50
2023-05-22T22:30:04.886Z,7.65
2023-05-22T22:34:58.231Z,7.78
2023-05-22T22:39:51.628Z,8.43
2023-05-22T22:44:46.380Z,7.53
2023-05-22T22:49:39.693Z,9.18
2023-05-22T22:54:33.000Z,7.90
2023-05-22T22:59:26.475Z,8.18
2023-05-22T23:04:21.286Z,8.02
2023-05-22T23:09:14.787Z,8.88
2023-05-22T23:14:09.915Z,9.85
2023-05-22T23:19:03.812Z,8.32
2023-05-22T23:23:58.597Z,8.65
2023-05-22T23:28:51.940Z,7.90
2023-05-22T23:33:45.815Z,8.93
2023-05-22T23:38:39.168Z,9.80
2023-05-22T23:43:34.047Z,8.30
2023-05-22T23:48:27.359Z,8.38
2023-05-22T23:53:20.690Z,9.38
2023-05-22T23:58:15.915Z,9.02
